KCMY/CMY METAR and TAF weather

Enter ICAO airport designator
Station Type Date Time Source
KCMY METAR 2018/04/27 00:55 UTC NOAA

KCMY 270055Z AUTO 29006KT 10SM BKN075 BKN100 17/03 A2980 RMK AO2 T01670028


Station Type Date Time Source
KCMY Decoded METAR 2018/04/27 00:55 UTC NOAA

Sparta, Sparta / Fort McCoy Airport, WI, United States (KCMY) 43-57-30N 090-44-16W
Apr 26, 2018 - 08:55 PM EDT / 2018.04.27 0055 UTC
Wind: from the WNW (290 degrees) at 7 MPH (6 KT):0
Visibility: 10 mile(s):0
Sky conditions: mostly cloudy
Temperature: 62.1 F (16.7 C)
Dew Point: 37.0 F (2.8 C)
Relative Humidity: 39%
Pressure (altimeter): 29.8 in. Hg (1009 hPa)
ob: KCMY 270055Z AUTO 29006KT 10SM BKN075 BKN100 17/03 A2980 RMK AO2 T01670028
cycle: 1

Station Type Date Time Source
KCMY TAF UTC NOAA

Error!


Example: see airport list